createdAt,value
2023-01-18T00:01:02.202Z,100.00
2023-01-18T00:03:52.963Z,100.00
2023-01-18T00:06:41.702Z,100.00
2023-01-18T00:09:30.158Z,100.00
2023-01-18T00:12:18.606Z,100.00
2023-01-18T00:15:08.486Z,100.00
2023-01-18T00:17:57.004Z,100.00
2023-01-18T00:20:46.803Z,100.00
2023-01-18T00:23:35.620Z,100.00
2023-01-18T00:26:24.123Z,100.00
2023-01-18T00:29:12.548Z,100.00
2023-01-18T00:32:01.009Z,100.00
2023-01-18T00:34:50.597Z,100.00
2023-01-18T00:37:40.968Z,100.00
2023-01-18T00:40:30.239Z,100.00
2023-01-18T00:43:35.993Z,100.00
2023-01-18T00:46:27.208Z,100.00
2023-01-18T00:49:15.629Z,100.00
2023-01-18T00:52:04.385Z,100.00
2023-01-18T00:54:54.206Z,100.00
2023-01-18T00:57:42.883Z,100.00
2023-01-18T01:00:32.555Z,100.00
2023-01-18T01:03:21.875Z,100.00
2023-01-18T01:06:32.763Z,100.00
2023-01-18T01:09:23.250Z,100.00
2023-01-18T01:12:30.648Z,100.00
2023-01-18T01:15:36.729Z,100.00
2023-01-18T01:18:43.025Z,100.00
2023-01-18T01:21:49.185Z,100.00
2023-01-18T01:24:55.233Z,100.00
2023-01-18T01:27:45.048Z,100.00
2023-01-18T01:30:33.518Z,100.00
2023-01-18T01:33:22.032Z,100.00
2023-01-18T01:36:13.321Z,100.00
2023-01-18T01:39:01.807Z,100.00
2023-01-18T01:41:50.432Z,100.00
2023-01-18T01:44:47.674Z,100.00
2023-01-18T01:47:38.880Z,100.00
2023-01-18T01:50:30.031Z,100.00
2023-01-18T01:53:18.492Z,100.00
2023-01-18T01:56:07.588Z,100.00
2023-01-18T01:58:58.071Z,100.00
2023-01-18T02:01:48.397Z,100.00
2023-01-18T02:04:37.141Z,100.00
2023-01-18T02:07:28.745Z,100.00
2023-01-18T02:10:17.543Z,100.00
2023-01-18T02:13:06.535Z,100.00
2023-01-18T02:16:01.226Z,100.00
2023-01-18T02:18:56.326Z,100.00
2023-01-18T02:21:45.700Z,100.00
2023-01-18T02:24:58.943Z,100.00
2023-01-18T02:27:52.530Z,100.00
2023-01-18T02:30:44.467Z,100.00
2023-01-18T02:33:36.876Z,100.00
2023-01-18T02:36:28.618Z,100.00
2023-01-18T02:39:31.822Z,100.00
2023-01-18T02:42:38.935Z,100.00
2023-01-18T02:45:49.622Z,100.00
2023-01-18T02:48:41.613Z,100.00
2023-01-18T02:51:30.110Z,100.00
2023-01-18T02:54:24.351Z,100.00
2023-01-18T02:57:14.595Z,100.00
2023-01-18T03:00:04.796Z,100.00
2023-01-18T03:02:55.592Z,100.00
2023-01-18T03:05:47.304Z,100.00
2023-01-18T03:08:39.830Z,100.00
2023-01-18T03:11:35.358Z,100.00
2023-01-18T03:14:31.690Z,100.00
2023-01-18T03:17:23.479Z,100.00
2023-01-18T03:20:14.672Z,100.00
2023-01-18T03:23:24.804Z,100.00
2023-01-18T03:26:16.380Z,100.00
2023-01-18T03:29:23.365Z,100.00
2023-01-18T03:32:31.995Z,100.00
2023-01-18T03:35:26.702Z,100.00
2023-01-18T03:38:17.231Z,100.00
2023-01-18T03:41:06.584Z,100.00
2023-01-18T03:43:57.777Z,100.00
2023-01-18T03:46:46.320Z,100.00
2023-01-18T03:49:35.529Z,100.00
2023-01-18T03:52:26.185Z,100.00
2023-01-18T03:55:20.476Z,100.00
2023-01-18T03:58:11.147Z,100.00
2023-01-18T04:01:00.001Z,100.00
2023-01-18T04:03:48.605Z,100.00
2023-01-18T04:06:37.353Z,100.00
2023-01-18T04:09:26.054Z,100.00
2023-01-18T04:12:15.820Z,100.00
2023-01-18T04:15:05.447Z,100.00
2023-01-18T04:17:55.868Z,100.00
2023-01-18T04:20:44.411Z,100.00
2023-01-18T04:23:32.873Z,100.00
2023-01-18T04:26:21.343Z,100.00
2023-01-18T04:29:11.133Z,100.00
2023-01-18T04:31:59.545Z,100.00
2023-01-18T04:34:48.008Z,100.00
2023-01-18T04:37:38.395Z,100.00
2023-01-18T04:40:26.843Z,100.00
2023-01-18T04:43:15.355Z,100.00
2023-01-18T04:46:05.438Z,100.00
2023-01-18T04:48:53.915Z,100.00
2023-01-18T04:51:43.137Z,100.00
2023-01-18T04:54:31.735Z,100.00
2023-01-18T04:57:20.334Z,100.00
2023-01-18T05:00:10.441Z,100.00
2023-01-18T05:03:00.630Z,100.00
2023-01-18T05:05:49.242Z,100.00
2023-01-18T05:08:40.860Z,100.00
2023-01-18T05:11:29.311Z,100.00
2023-01-18T05:14:17.916Z,100.00
2023-01-18T05:17:07.291Z,100.00
2023-01-18T05:19:57.321Z,100.00
2023-01-18T05:22:45.922Z,100.00
2023-01-18T05:25:34.355Z,100.00
2023-01-18T05:28:23.456Z,100.00
2023-01-18T05:31:12.021Z,100.00
2023-01-18T05:34:00.609Z,100.00
2023-01-18T05:36:50.452Z,100.00
2023-01-18T05:39:38.910Z,100.00
2023-01-18T05:42:27.361Z,100.00
2023-01-18T05:45:16.205Z,100.00
2023-01-18T05:48:04.962Z,100.00
2023-01-18T05:50:53.666Z,100.00
2023-01-18T05:53:43.529Z,100.00
2023-01-18T05:56:32.949Z,100.00
2023-01-18T05:59:21.419Z,100.00
2023-01-18T06:02:09.964Z,100.00
2023-01-18T06:04:58.475Z,100.00
2023-01-18T06:07:47.715Z,100.00
2023-01-18T06:10:37.519Z,100.00
2023-01-18T06:13:28.903Z,100.00
2023-01-18T06:16:17.416Z,100.00
2023-01-18T06:19:05.888Z,100.00
2023-01-18T06:21:54.401Z,100.00
2023-01-18T06:24:42.898Z,100.00
2023-01-18T06:27:32.728Z,100.00
2023-01-18T06:30:21.332Z,100.00
2023-01-18T06:33:09.855Z,100.00
2023-01-18T06:35:58.389Z,100.00
2023-01-18T06:38:46.877Z,100.00
2023-01-18T06:41:35.353Z,100.00
2023-01-18T06:44:25.563Z,100.00
2023-01-18T06:47:15.455Z,100.00
2023-01-18T06:50:04.128Z,100.00
2023-01-18T06:52:52.616Z,100.00
2023-01-18T06:55:41.069Z,100.00
2023-01-18T06:58:31.044Z,100.00
2023-01-18T07:01:21.050Z,100.00
2023-01-18T07:04:09.611Z,100.00
2023-01-18T07:06:58.140Z,100.00
2023-01-18T07:09:46.682Z,100.00
2023-01-18T07:12:35.662Z,100.00
2023-01-18T07:15:24.095Z,100.00
2023-01-18T07:18:13.842Z,100.00
2023-01-18T07:21:03.539Z,100.00
2023-01-18T07:23:52.408Z,100.00
2023-01-18T07:26:40.857Z,100.00
2023-01-18T07:29:29.382Z,100.00
2023-01-18T07:32:17.864Z,100.00
2023-01-18T07:35:08.490Z,100.00
2023-01-18T07:37:56.933Z,100.00
2023-01-18T07:40:46.654Z,100.00
2023-01-18T07:43:37.399Z,100.00
2023-01-18T07:46:26.308Z,100.00
2023-01-18T07:49:15.549Z,100.00
2023-01-18T07:52:05.861Z,100.00
2023-01-18T07:54:54.363Z,100.00
2023-01-18T07:57:43.432Z,100.00
2023-01-18T08:00:32.004Z,100.00
2023-01-18T08:03:20.903Z,100.00
2023-01-18T08:06:09.744Z,100.00
2023-01-18T08:08:59.616Z,100.00
2023-01-18T08:11:48.171Z,100.00
2023-01-18T08:14:36.834Z,100.00
2023-01-18T08:17:25.353Z,100.00
2023-01-18T08:20:15.432Z,100.00
2023-01-18T08:23:04.747Z,100.00
2023-01-18T08:25:55.436Z,100.00
2023-01-18T08:28:44.777Z,100.00
2023-01-18T08:31:33.384Z,100.00
2023-01-18T08:34:22.762Z,100.00
2023-01-18T08:37:11.987Z,100.00
2023-01-18T08:40:00.448Z,100.00
2023-01-18T08:42:50.771Z,100.00
2023-01-18T08:45:39.311Z,100.00
2023-01-18T08:48:27.805Z,100.00
2023-01-18T08:51:17.993Z,100.00
2023-01-18T08:54:06.555Z,100.00
2023-01-18T08:56:55.188Z,100.00
2023-01-18T08:59:44.994Z,100.00
2023-01-18T09:02:33.587Z,100.00
2023-01-18T09:05:22.157Z,100.00
2023-01-18T09:08:10.624Z,100.00
2023-01-18T09:11:02.272Z,100.00
2023-01-18T09:14:00.646Z,100.00
2023-01-18T09:16:51.117Z,100.00
2023-01-18T09:19:39.598Z,100.00
2023-01-18T09:22:28.146Z,100.00
2023-01-18T09:25:18.021Z,100.00
2023-01-18T09:28:06.794Z,100.00
2023-01-18T09:30:55.791Z,100.00
2023-01-18T09:33:52.771Z,100.00
2023-01-18T09:36:42.297Z,100.00
2023-01-18T09:39:35.297Z,100.00
2023-01-18T09:42:33.230Z,100.00
2023-01-18T09:45:29.459Z,100.00
2023-01-18T09:48:31.161Z,100.00
2023-01-18T09:51:23.465Z,100.00
2023-01-18T09:54:18.427Z,100.00
2023-01-18T09:57:11.311Z,100.00
2023-01-18T10:00:00.973Z,100.00
2023-01-18T10:02:53.187Z,100.00
2023-01-18T10:05:45.376Z,100.00
2023-01-18T10:08:37.385Z,100.00
2023-01-18T10:11:33.000Z,100.00
2023-01-18T10:14:29.465Z,100.00
2023-01-18T10:17:20.659Z,100.00
2023-01-18T10:20:16.894Z,100.00
2023-01-18T10:23:11.230Z,100.00
2023-01-18T10:26:04.576Z,100.00
2023-01-18T10:28:58.998Z,100.00
2023-01-18T10:31:53.685Z,100.00
2023-01-18T10:34:45.033Z,100.00
2023-01-18T10:37:38.919Z,100.00
2023-01-18T10:40:27.746Z,100.00
2023-01-18T10:43:20.525Z,100.00
2023-01-18T10:46:14.660Z,100.00
2023-01-18T10:49:04.421Z,100.00
2023-01-18T10:51:52.933Z,100.00
2023-01-18T10:54:41.692Z,100.00
2023-01-18T10:57:32.164Z,100.00
2023-01-18T11:00:33.019Z,100.00
2023-01-18T11:03:22.589Z,100.00
2023-01-18T11:06:11.152Z,100.00
2023-01-18T11:08:59.941Z,100.00
2023-01-18T11:12:06.167Z,100.00
2023-01-18T11:14:54.617Z,100.00
2023-01-18T11:17:46.704Z,100.00
2023-01-18T11:20:38.156Z,100.00
2023-01-18T11:23:28.020Z,100.00
2023-01-18T11:26:19.091Z,100.00
2023-01-18T11:29:08.156Z,100.00
2023-01-18T11:31:57.292Z,100.00
2023-01-18T11:34:51.674Z,100.00
2023-01-18T11:37:43.513Z,100.00
2023-01-18T11:40:34.391Z,100.00
2023-01-18T11:43:24.517Z,100.00
2023-01-18T11:46:34.713Z,100.00
2023-01-18T11:49:30.552Z,100.00
2023-01-18T11:52:27.435Z,100.00
2023-01-18T11:55:26.431Z,99.16
2023-01-18T11:58:28.277Z,99.88
2023-01-18T12:01:46.787Z,98.51
2023-01-18T12:04:44.551Z,94.21
2023-01-18T12:07:44.474Z,92.17
2023-01-18T12:10:51.953Z,94.91
2023-01-18T12:13:43.429Z,97.72
2023-01-18T12:16:45.795Z,99.31
2023-01-18T12:19:53.519Z,98.71
2023-01-18T12:23:04.951Z,98.24
2023-01-18T12:26:12.255Z,95.12
2023-01-18T12:29:17.480Z,84.82
2023-01-18T12:32:15.836Z,85.64
2023-01-18T12:35:24.567Z,86.03
2023-01-18T12:38:19.809Z,86.29
2023-01-18T12:41:32.666Z,85.17
2023-01-18T12:44:43.524Z,83.93
2023-01-18T12:47:36.331Z,85.59
2023-01-18T12:50:26.506Z,84.63
2023-01-18T12:53:20.855Z,85.60
2023-01-18T12:56:13.017Z,86.50
2023-01-18T12:59:03.921Z,85.92
2023-01-18T13:01:56.173Z,84.86
2023-01-18T13:04:47.510Z,86.26
2023-01-18T13:07:40.215Z,86.35
2023-01-18T13:10:30.199Z,85.60
2023-01-18T13:13:20.992Z,86.49
2023-01-18T13:16:29.153Z,86.71
2023-01-18T13:19:21.620Z,84.96
2023-01-18T13:22:16.560Z,85.24
2023-01-18T13:25:26.281Z,86.42
2023-01-18T13:28:21.061Z,89.05
2023-01-18T13:31:09.586Z,90.13
2023-01-18T13:33:58.401Z,90.80
2023-01-18T13:36:47.463Z,91.19
2023-01-18T13:39:45.387Z,92.03
2023-01-18T13:42:36.818Z,92.08
2023-01-18T13:45:28.459Z,86.45
2023-01-18T13:48:41.813Z,87.50
2023-01-18T13:51:57.202Z,87.94
2023-01-18T13:55:05.364Z,86.85
2023-01-18T13:57:58.154Z,88.54
2023-01-18T14:00:51.255Z,89.16
2023-01-18T14:03:44.221Z,86.14
2023-01-18T14:06:36.013Z,85.77
2023-01-18T14:09:35.550Z,87.08
2023-01-18T14:12:48.403Z,83.85
2023-01-18T14:15:52.511Z,84.32
2023-01-18T14:18:49.815Z,86.62
2023-01-18T14:21:55.115Z,88.43
2023-01-18T14:24:57.936Z,90.31
2023-01-18T14:27:49.240Z,91.22
2023-01-18T14:30:41.033Z,90.08
2023-01-18T14:33:33.807Z,90.90
2023-01-18T14:36:24.514Z,91.86
2023-01-18T14:39:17.098Z,88.64
2023-01-18T14:42:06.252Z,86.04
2023-01-18T14:44:58.858Z,84.32
2023-01-18T14:47:48.419Z,85.62
2023-01-18T14:50:41.367Z,83.43
2023-01-18T14:53:31.689Z,83.91
2023-01-18T14:56:22.850Z,83.34
2023-01-18T14:59:31.004Z,83.51
2023-01-18T15:02:23.835Z,84.66
2023-01-18T15:05:13.387Z,82.92
2023-01-18T15:08:03.238Z,82.86
2023-01-18T15:10:51.873Z,83.83
2023-01-18T15:13:47.430Z,84.20
2023-01-18T15:16:36.287Z,85.14
2023-01-18T15:19:26.019Z,84.97
2023-01-18T15:22:16.979Z,85.54
2023-01-18T15:25:09.031Z,84.22
2023-01-18T15:28:01.958Z,85.97
2023-01-18T15:30:57.467Z,84.92
2023-01-18T15:33:46.557Z,86.94
2023-01-18T15:36:35.532Z,86.84
2023-01-18T15:39:24.353Z,87.25
2023-01-18T15:42:15.800Z,88.55
2023-01-18T15:45:04.635Z,89.81
2023-01-18T15:47:55.184Z,90.31
2023-01-18T15:50:45.699Z,91.91
2023-01-18T15:53:36.699Z,93.06
2023-01-18T15:56:27.126Z,93.27
2023-01-18T15:59:20.590Z,95.16
2023-01-18T16:02:18.021Z,95.61
2023-01-18T16:05:16.809Z,96.06
2023-01-18T16:08:20.715Z,96.69
2023-01-18T16:11:27.327Z,97.88
2023-01-18T16:14:27.265Z,97.82
2023-01-18T16:17:17.984Z,99.41
2023-01-18T16:20:16.305Z,98.84
2023-01-18T16:23:08.882Z,100.00
2023-01-18T16:26:01.402Z,100.00
2023-01-18T16:28:51.690Z,100.00
2023-01-18T16:31:43.660Z,100.00
2023-01-18T16:34:32.184Z,100.00
2023-01-18T16:37:20.652Z,100.00
2023-01-18T16:40:13.392Z,100.00
2023-01-18T16:43:03.292Z,100.00
2023-01-18T16:45:53.074Z,100.00
2023-01-18T16:48:43.010Z,100.00
2023-01-18T16:51:31.459Z,100.00
2023-01-18T16:54:20.060Z,100.00
2023-01-18T16:57:08.666Z,100.00
2023-01-18T16:59:57.144Z,100.00
2023-01-18T17:02:45.792Z,100.00
2023-01-18T17:05:35.746Z,100.00
2023-01-18T17:08:24.448Z,100.00
2023-01-18T17:11:13.934Z,100.00
2023-01-18T17:14:02.396Z,100.00
2023-01-18T17:16:50.939Z,100.00
2023-01-18T17:19:41.587Z,100.00
2023-01-18T17:22:31.441Z,100.00
2023-01-18T17:25:20.775Z,100.00
2023-01-18T17:28:11.903Z,100.00
2023-01-18T17:31:00.462Z,100.00
2023-01-18T17:33:48.960Z,100.00
2023-01-18T17:36:37.445Z,100.00
2023-01-18T17:39:37.441Z,100.00
2023-01-18T17:42:32.653Z,100.00
2023-01-18T17:45:21.180Z,100.00
2023-01-18T17:48:09.962Z,100.00
2023-01-18T17:50:58.565Z,100.00
2023-01-18T17:53:47.341Z,100.00
2023-01-18T17:56:37.817Z,100.00
2023-01-18T17:59:26.330Z,100.00
2023-01-18T18:02:14.877Z,100.00
2023-01-18T18:05:04.030Z,100.00
2023-01-18T18:07:52.507Z,100.00
2023-01-18T18:10:43.229Z,100.00
2023-01-18T18:13:33.352Z,100.00
2023-01-18T18:16:23.947Z,100.00
2023-01-18T18:19:14.404Z,100.00
2023-01-18T18:22:02.975Z,100.00
2023-01-18T18:24:51.815Z,100.00
2023-01-18T18:27:47.801Z,100.00
2023-01-18T18:30:37.685Z,100.00
2023-01-18T18:33:27.648Z,100.00
2023-01-18T18:36:16.109Z,100.00
2023-01-18T18:39:05.470Z,100.00
2023-01-18T18:41:54.382Z,100.00
2023-01-18T18:44:43.019Z,100.00
2023-01-18T18:47:32.994Z,100.00
2023-01-18T18:50:21.507Z,100.00
2023-01-18T18:53:10.334Z,100.00
2023-01-18T18:55:59.677Z,100.00
2023-01-18T18:58:48.838Z,100.00
2023-01-18T19:01:37.447Z,100.00
2023-01-18T19:04:27.796Z,100.00
2023-01-18T19:07:17.084Z,100.00
2023-01-18T19:10:06.935Z,100.00
2023-01-18T19:12:55.931Z,100.00
2023-01-18T19:15:46.822Z,100.00
2023-01-18T19:18:35.738Z,100.00
2023-01-18T19:21:25.807Z,100.00
2023-01-18T19:24:14.279Z,100.00
2023-01-18T19:27:02.887Z,100.00
2023-01-18T19:29:53.118Z,100.00
2023-01-18T19:32:41.942Z,100.00
2023-01-18T19:35:31.124Z,100.00
2023-01-18T19:38:21.037Z,100.00
2023-01-18T19:41:09.796Z,100.00
2023-01-18T19:43:58.300Z,100.00
2023-01-18T19:46:46.956Z,100.00
2023-01-18T19:49:35.458Z,99.52
2023-01-18T19:52:24.426Z,98.56
2023-01-18T19:55:14.392Z,97.35
2023-01-18T19:58:03.195Z,96.79
2023-01-18T20:00:51.806Z,95.37
2023-01-18T20:03:40.601Z,94.69
2023-01-18T20:06:29.094Z,94.66
2023-01-18T20:09:21.173Z,94.31
2023-01-18T20:12:13.822Z,94.23
2023-01-18T20:15:02.406Z,94.06
2023-01-18T20:17:50.950Z,93.85
2023-01-18T20:20:39.485Z,94.23
2023-01-18T20:23:27.902Z,92.80
2023-01-18T20:26:31.110Z,91.75
2023-01-18T20:29:30.248Z,91.62
2023-01-18T20:32:18.816Z,92.69
2023-01-18T20:35:07.821Z,90.64
2023-01-18T20:37:56.452Z,92.43
2023-01-18T20:40:45.287Z,91.48
2023-01-18T20:43:33.767Z,92.35
2023-01-18T20:46:23.605Z,92.58
2023-01-18T20:49:12.107Z,91.08
2023-01-18T20:52:00.559Z,91.71
2023-01-18T20:54:49.145Z,92.95
2023-01-18T20:57:37.678Z,93.20
2023-01-18T21:00:26.162Z,92.79
2023-01-18T21:03:17.868Z,92.92
2023-01-18T21:06:06.934Z,93.87
2023-01-18T21:08:57.305Z,94.23
2023-01-18T21:11:45.874Z,93.28
2023-01-18T21:14:34.335Z,93.07
2023-01-18T21:17:22.800Z,92.83
2023-01-18T21:20:13.715Z,92.03
2023-01-18T21:23:02.667Z,92.09
2023-01-18T21:25:51.649Z,93.64
2023-01-18T21:28:40.326Z,93.60
2023-01-18T21:31:28.953Z,93.59
2023-01-18T21:34:17.507Z,93.56
2023-01-18T21:37:07.455Z,93.53
2023-01-18T21:39:58.181Z,93.45
2023-01-18T21:43:04.404Z,92.98
2023-01-18T21:45:56.724Z,91.49
2023-01-18T21:48:45.221Z,92.12
2023-01-18T21:51:51.486Z,93.00
2023-01-18T21:54:41.266Z,93.22
2023-01-18T21:57:29.732Z,93.73
2023-01-18T22:00:18.983Z,93.23
2023-01-18T22:03:09.538Z,93.75
2023-01-18T22:05:58.149Z,94.63
2023-01-18T22:08:46.582Z,94.10
2023-01-18T22:11:36.477Z,94.45
2023-01-18T22:14:25.646Z,94.62
2023-01-18T22:17:14.179Z,94.97
2023-01-18T22:20:05.749Z,94.68
2023-01-18T22:22:55.740Z,94.50
2023-01-18T22:25:44.153Z,94.74
2023-01-18T22:28:34.054Z,94.21
2023-01-18T22:31:22.664Z,93.29
2023-01-18T22:34:18.148Z,93.14
2023-01-18T22:37:06.706Z,93.67
2023-01-18T22:39:55.212Z,93.71
2023-01-18T22:42:44.428Z,94.06
2023-01-18T22:45:34.304Z,93.65
2023-01-18T22:48:22.856Z,93.30
2023-01-18T22:51:14.702Z,93.70
2023-01-18T22:54:03.210Z,94.13
2023-01-18T22:56:51.687Z,93.75
2023-01-18T22:59:40.203Z,93.74
2023-01-18T23:02:30.415Z,94.70
2023-01-18T23:05:19.040Z,95.03
2023-01-18T23:08:08.843Z,94.01
2023-01-18T23:10:57.502Z,94.28
2023-01-18T23:14:08.938Z,94.35
2023-01-18T23:17:14.795Z,95.43
2023-01-18T23:20:05.133Z,95.48
2023-01-18T23:22:53.579Z,95.76
2023-01-18T23:25:42.043Z,95.09
2023-01-18T23:28:42.044Z,95.28
2023-01-18T23:31:30.609Z,95.53
2023-01-18T23:34:19.173Z,94.41
2023-01-18T23:37:09.023Z,95.07
2023-01-18T23:40:15.306Z,94.47
2023-01-18T23:43:21.324Z,95.71
2023-01-18T23:46:27.480Z,93.70
2023-01-18T23:49:33.863Z,94.88
2023-01-18T23:52:41.011Z,94.20
2023-01-18T23:55:29.435Z,93.69
2023-01-18T23:58:17.984Z,92.68
